sensor_id;sensor_type;location;lat;lon;timestamp;temperature;humidity
14008;DHT22;61651;45.508;12.232;2022-08-19T00:02:22;24.20;99.90
14008;DHT22;61651;45.508;12.232;2022-08-19T00:05:24;24.40;99.90
14008;DHT22;61651;45.508;12.232;2022-08-19T00:08:26;24.40;99.90
14008;DHT22;61651;45.508;12.232;2022-08-19T00:11:30;24.40;99.90
14008;DHT22;61651;45.508;12.232;2022-08-19T00:14:32;24.50;99.90
14008;DHT22;61651;45.508;12.232;2022-08-19T00:17:34;24.50;99.90
14008;DHT22;61651;45.508;12.232;2022-08-19T00:20:36;24.60;99.90
14008;DHT22;61651;45.508;12.232;2022-08-19T00:23:41;24.60;99.90
14008;DHT22;61651;45.508;12.232;2022-08-19T00:26:45;24.50;99.90
14008;DHT22;61651;45.508;12.232;2022-08-19T00:29:47;24.50;99.90
14008;DHT22;61651;45.508;12.232;2022-08-19T00:32:49;24.50;99.90
14008;DHT22;61651;45.508;12.232;2022-08-19T00:35:51;24.50;99.90
14008;DHT22;61651;45.508;12.232;2022-08-19T00:38:53;24.40;99.90
14008;DHT22;61651;45.508;12.232;2022-08-19T00:41:57;24.40;99.90
14008;DHT22;61651;45.508;12.232;2022-08-19T00:44:59;22.70;99.90
14008;DHT22;61651;45.508;12.232;2022-08-19T00:48:01;22.00;99.90
14008;DHT22;61651;45.508;12.232;2022-08-19T00:51:05;22.10;99.90
14008;DHT22;61651;45.508;12.232;2022-08-19T00:54:07;22.40;99.90
14008;DHT22;61651;45.508;12.232;2022-08-19T00:57:16;22.70;99.90
14008;DHT22;61651;45.508;12.232;2022-08-19T01:00:19;23.10;99.90
14008;DHT22;61651;45.508;12.232;2022-08-19T01:03:21;23.30;99.90
14008;DHT22;61651;45.508;12.232;2022-08-19T01:06:23;23.40;99.90
14008;DHT22;61651;45.508;12.232;2022-08-19T01:09:25;23.60;99.90
14008;DHT22;61651;45.508;12.232;2022-08-19T01:12:29;23.60;99.90
14008;DHT22;61651;45.508;12.232;2022-08-19T01:15:39;23.70;99.90
14008;DHT22;61651;45.508;12.232;2022-08-19T01:18:42;23.70;99.90
14008;DHT22;61651;45.508;12.232;2022-08-19T01:21:48;23.80;99.90
14008;DHT22;61651;45.508;12.232;2022-08-19T01:24:54;23.90;99.90
14008;DHT22;61651;45.508;12.232;2022-08-19T01:27:56;23.90;99.90
14008;DHT22;61651;45.508;12.232;2022-08-19T01:30:58;24.00;99.90
14008;DHT22;61651;45.508;12.232;2022-08-19T01:34:01;24.00;99.90
14008;DHT22;61651;45.508;12.232;2022-08-19T01:37:06;24.00;99.90
14008;DHT22;61651;45.508;12.232;2022-08-19T01:40:12;23.90;99.90
14008;DHT22;61651;45.508;12.232;2022-08-19T01:43:15;24.00;99.90
14008;DHT22;61651;45.508;12.232;2022-08-19T01:46:19;23.90;99.90
14008;DHT22;61651;45.508;12.232;2022-08-19T01:49:23;23.90;99.90
14008;DHT22;61651;45.508;12.232;2022-08-19T01:52:25;23.90;99.90
14008;DHT22;61651;45.508;12.232;2022-08-19T01:55:29;23.60;99.90
14008;DHT22;61651;45.508;12.232;2022-08-19T01:58:35;23.70;99.90
14008;DHT22;61651;45.508;12.232;2022-08-19T02:01:38;23.80;99.90
14008;DHT22;61651;45.508;12.232;2022-08-19T02:04:40;23.80;99.90
14008;DHT22;61651;45.508;12.232;2022-08-19T02:07:43;23.80;99.90
14008;DHT22;61651;45.508;12.232;2022-08-19T02:10:46;23.80;99.90
14008;DHT22;61651;45.508;12.232;2022-08-19T02:13:48;23.70;99.90
14008;DHT22;61651;45.508;12.232;2022-08-19T02:16:51;23.70;99.90
14008;DHT22;61651;45.508;12.232;2022-08-19T02:19:52;23.70;99.90
14008;DHT22;61651;45.508;12.232;2022-08-19T02:22:54;23.70;99.90
14008;DHT22;61651;45.508;12.232;2022-08-19T02:25:58;23.60;99.90
14008;DHT22;61651;45.508;12.232;2022-08-19T02:29:00;23.70;99.90
14008;DHT22;61651;45.508;12.232;2022-08-19T02:32:03;23.70;99.90
14008;DHT22;61651;45.508;12.232;2022-08-19T02:35:06;23.70;99.90
14008;DHT22;61651;45.508;12.232;2022-08-19T02:38:08;23.60;99.90
14008;DHT22;61651;45.508;12.232;2022-08-19T02:41:32;23.60;99.90
14008;DHT22;61651;45.508;12.232;2022-08-19T02:44:34;23.60;99.90
14008;DHT22;61651;45.508;12.232;2022-08-19T02:47:37;23.50;99.90
14008;DHT22;61651;45.508;12.232;2022-08-19T02:50:40;23.30;99.90
14008;DHT22;61651;45.508;12.232;2022-08-19T02:53:42;23.10;99.90
14008;DHT22;61651;45.508;12.232;2022-08-19T02:56:46;23.10;99.90
14008;DHT22;61651;45.508;12.232;2022-08-19T02:59:48;23.20;99.90
14008;DHT22;61651;45.508;12.232;2022-08-19T03:02:50;23.20;99.90
14008;DHT22;61651;45.508;12.232;2022-08-19T03:06:01;23.20;99.90
14008;DHT22;61651;45.508;12.232;2022-08-19T03:09:04;23.10;99.90
14008;DHT22;61651;45.508;12.232;2022-08-19T03:12:09;23.10;99.90
14008;DHT22;61651;45.508;12.232;2022-08-19T03:15:11;23.10;99.90
14008;DHT22;61651;45.508;12.232;2022-08-19T03:18:13;23.10;99.90
14008;DHT22;61651;45.508;12.232;2022-08-19T03:21:17;23.00;99.90
14008;DHT22;61651;45.508;12.232;2022-08-19T03:24:19;23.00;99.90
14008;DHT22;61651;45.508;12.232;2022-08-19T03:27:23;22.90;99.90
14008;DHT22;61651;45.508;12.232;2022-08-19T03:30:25;22.90;99.90
14008;DHT22;61651;45.508;12.232;2022-08-19T03:33:28;22.90;99.90
14008;DHT22;61651;45.508;12.232;2022-08-19T03:36:30;22.90;99.90
14008;DHT22;61651;45.508;12.232;2022-08-19T03:39:33;22.90;99.90
14008;DHT22;61651;45.508;12.232;2022-08-19T03:42:38;22.90;99.90
14008;DHT22;61651;45.508;12.232;2022-08-19T03:45:42;22.90;99.90
14008;DHT22;61651;45.508;12.232;2022-08-19T03:48:44;22.90;99.90
14008;DHT22;61651;45.508;12.232;2022-08-19T03:51:48;22.90;99.90
14008;DHT22;61651;45.508;12.232;2022-08-19T03:54:50;22.90;99.90
14008;DHT22;61651;45.508;12.232;2022-08-19T03:57:54;23.00;99.90
14008;DHT22;61651;45.508;12.232;2022-08-19T04:00:57;23.00;99.90
14008;DHT22;61651;45.508;12.232;2022-08-19T04:03:59;22.90;99.90
14008;DHT22;61651;45.508;12.232;2022-08-19T04:07:02;22.90;99.90
14008;DHT22;61651;45.508;12.232;2022-08-19T04:10:04;22.90;99.90
14008;DHT22;61651;45.508;12.232;2022-08-19T04:13:08;22.80;99.90
14008;DHT22;61651;45.508;12.232;2022-08-19T04:16:10;22.80;99.90
14008;DHT22;61651;45.508;12.232;2022-08-19T04:19:13;22.70;99.90
14008;DHT22;61651;45.508;12.232;2022-08-19T04:22:16;22.70;99.90
14008;DHT22;61651;45.508;12.232;2022-08-19T04:25:19;22.80;99.90
14008;DHT22;61651;45.508;12.232;2022-08-19T04:28:23;22.80;99.90
14008;DHT22;61651;45.508;12.232;2022-08-19T04:31:27;22.80;99.90
14008;DHT22;61651;45.508;12.232;2022-08-19T04:34:29;22.70;99.90
14008;DHT22;61651;45.508;12.232;2022-08-19T04:37:32;22.80;99.90
14008;DHT22;61651;45.508;12.232;2022-08-19T04:40:34;22.80;99.90
14008;DHT22;61651;45.508;12.232;2022-08-19T04:44:00;22.90;99.90
14008;DHT22;61651;45.508;12.232;2022-08-19T04:47:03;22.90;99.90
14008;DHT22;61651;45.508;12.232;2022-08-19T04:50:07;22.80;99.90
14008;DHT22;61651;45.508;12.232;2022-08-19T04:53:12;22.90;99.90
14008;DHT22;61651;45.508;12.232;2022-08-19T04:56:16;22.80;99.90
14008;DHT22;61651;45.508;12.232;2022-08-19T04:59:21;22.80;99.90
14008;DHT22;61651;45.508;12.232;2022-08-19T05:02:23;22.70;99.90
14008;DHT22;61651;45.508;12.232;2022-08-19T05:05:25;22.80;99.90
14008;DHT22;61651;45.508;12.232;2022-08-19T05:08:27;22.90;99.90
14008;DHT22;61651;45.508;12.232;2022-08-19T05:11:32;23.00;99.90
14008;DHT22;61651;45.508;12.232;2022-08-19T05:14:36;23.00;99.90
14008;DHT22;61651;45.508;12.232;2022-08-19T05:17:38;23.00;99.90
14008;DHT22;61651;45.508;12.232;2022-08-19T05:21:06;23.00;99.90
14008;DHT22;61651;45.508;12.232;2022-08-19T05:24:26;22.90;99.90
14008;DHT22;61651;45.508;12.232;2022-08-19T05:27:28;22.90;99.90
14008;DHT22;61651;45.508;12.232;2022-08-19T05:30:32;22.90;99.90
14008;DHT22;61651;45.508;12.232;2022-08-19T05:33:34;22.90;99.90
14008;DHT22;61651;45.508;12.232;2022-08-19T05:36:39;22.90;99.90
14008;DHT22;61651;45.508;12.232;2022-08-19T05:39:41;22.90;99.90
14008;DHT22;61651;45.508;12.232;2022-08-19T05:42:43;22.80;99.90
14008;DHT22;61651;45.508;12.232;2022-08-19T05:45:47;22.90;99.90
14008;DHT22;61651;45.508;12.232;2022-08-19T05:48:51;22.90;99.90
14008;DHT22;61651;45.508;12.232;2022-08-19T05:51:53;23.00;99.90
14008;DHT22;61651;45.508;12.232;2022-08-19T05:54:56;23.00;99.90
14008;DHT22;61651;45.508;12.232;2022-08-19T05:57:58;23.10;99.90
14008;DHT22;61651;45.508;12.232;2022-08-19T06:01:08;23.20;99.90
14008;DHT22;61651;45.508;12.232;2022-08-19T06:04:11;23.20;99.90
14008;DHT22;61651;45.508;12.232;2022-08-19T06:07:15;23.20;99.90
14008;DHT22;61651;45.508;12.232;2022-08-19T06:10:17;23.20;99.90
14008;DHT22;61651;45.508;12.232;2022-08-19T06:13:19;23.20;99.90
14008;DHT22;61651;45.508;12.232;2022-08-19T06:16:23;23.40;99.90
14008;DHT22;61651;45.508;12.232;2022-08-19T06:19:25;23.50;99.90
14008;DHT22;61651;45.508;12.232;2022-08-19T06:22:27;23.70;99.90
14008;DHT22;61651;45.508;12.232;2022-08-19T06:25:30;23.80;99.90
14008;DHT22;61651;45.508;12.232;2022-08-19T06:28:32;23.90;99.90
14008;DHT22;61651;45.508;12.232;2022-08-19T06:31:36;24.00;99.90
14008;DHT22;61651;45.508;12.232;2022-08-19T06:34:39;24.00;99.90
14008;DHT22;61651;45.508;12.232;2022-08-19T06:37:41;24.10;99.90
14008;DHT22;61651;45.508;12.232;2022-08-19T06:40:44;24.20;99.90
14008;DHT22;61651;45.508;12.232;2022-08-19T06:43:46;24.30;99.90
14008;DHT22;61651;45.508;12.232;2022-08-19T06:46:50;24.40;99.90
14008;DHT22;61651;45.508;12.232;2022-08-19T06:49:53;24.50;99.90
14008;DHT22;61651;45.508;12.232;2022-08-19T06:53:00;24.60;99.90
14008;DHT22;61651;45.508;12.232;2022-08-19T06:56:03;24.60;99.90
14008;DHT22;61651;45.508;12.232;2022-08-19T06:59:07;24.70;99.90
14008;DHT22;61651;45.508;12.232;2022-08-19T07:02:11;24.80;99.90
14008;DHT22;61651;45.508;12.232;2022-08-19T07:05:13;24.80;99.90
14008;DHT22;61651;45.508;12.232;2022-08-19T07:08:15;24.80;99.90
14008;DHT22;61651;45.508;12.232;2022-08-19T07:11:18;24.90;99.90
14008;DHT22;61651;45.508;12.232;2022-08-19T07:14:23;25.00;99.90
14008;DHT22;61651;45.508;12.232;2022-08-19T07:17:27;25.00;99.90
14008;DHT22;61651;45.508;12.232;2022-08-19T07:20:29;25.10;99.90
14008;DHT22;61651;45.508;12.232;2022-08-19T07:23:32;25.10;99.90
14008;DHT22;61651;45.508;12.232;2022-08-19T07:26:39;25.20;99.90
14008;DHT22;61651;45.508;12.232;2022-08-19T07:29:42;25.20;99.90
14008;DHT22;61651;45.508;12.232;2022-08-19T07:32:45;25.20;99.90
14008;DHT22;61651;45.508;12.232;2022-08-19T07:35:47;25.30;99.90
14008;DHT22;61651;45.508;12.232;2022-08-19T07:38:50;25.40;99.90
14008;DHT22;61651;45.508;12.232;2022-08-19T07:41:54;25.40;99.90
14008;DHT22;61651;45.508;12.232;2022-08-19T07:44:57;25.60;99.90
14008;DHT22;61651;45.508;12.232;2022-08-19T07:48:01;25.70;99.90
14008;DHT22;61651;45.508;12.232;2022-08-19T07:51:06;25.70;99.90
14008;DHT22;61651;45.508;12.232;2022-08-19T07:54:08;25.90;99.90
14008;DHT22;61651;45.508;12.232;2022-08-19T07:57:12;26.00;99.90
14008;DHT22;61651;45.508;12.232;2022-08-19T08:00:15;26.00;99.90
14008;DHT22;61651;45.508;12.232;2022-08-19T08:03:20;26.10;99.90
14008;DHT22;61651;45.508;12.232;2022-08-19T08:06:42;26.10;99.90
14008;DHT22;61651;45.508;12.232;2022-08-19T08:10:04;26.10;99.90
14008;DHT22;61651;45.508;12.232;2022-08-19T08:13:06;26.10;99.90
14008;DHT22;61651;45.508;12.232;2022-08-19T08:16:08;26.20;99.90
14008;DHT22;61651;45.508;12.232;2022-08-19T08:19:12;26.20;99.90
14008;DHT22;61651;45.508;12.232;2022-08-19T08:22:18;26.30;99.90
14008;DHT22;61651;45.508;12.232;2022-08-19T08:25:35;26.40;99.90
14008;DHT22;61651;45.508;12.232;2022-08-19T08:28:38;26.50;99.90
14008;DHT22;61651;45.508;12.232;2022-08-19T08:31:41;26.50;99.90
14008;DHT22;61651;45.508;12.232;2022-08-19T08:34:45;26.60;99.90
14008;DHT22;61651;45.508;12.232;2022-08-19T08:37:48;25.90;99.90
14008;DHT22;61651;45.508;12.232;2022-08-19T08:40:55;24.90;99.90
14008;DHT22;61651;45.508;12.232;2022-08-19T08:44:04;24.50;99.90
14008;DHT22;61651;45.508;12.232;2022-08-19T08:47:12;24.40;99.90
14008;DHT22;61651;45.508;12.232;2022-08-19T08:50:20;24.10;99.90
14008;DHT22;61651;45.508;12.232;2022-08-19T08:53:24;24.60;99.90
14008;DHT22;61651;45.508;12.232;2022-08-19T08:56:26;24.60;99.90
14008;DHT22;61651;45.508;12.232;2022-08-19T08:59:31;24.30;99.90
14008;DHT22;61651;45.508;12.232;2022-08-19T09:02:36;24.20;99.90
14008;DHT22;61651;45.508;12.232;2022-08-19T09:05:45;24.30;99.90
14008;DHT22;61651;45.508;12.232;2022-08-19T09:08:56;24.50;99.90
14008;DHT22;61651;45.508;12.232;2022-08-19T09:12:05;24.60;99.90
14008;DHT22;61651;45.508;12.232;2022-08-19T09:15:13;24.40;99.90
14008;DHT22;61651;45.508;12.232;2022-08-19T09:18:16;24.40;99.90
14008;DHT22;61651;45.508;12.232;2022-08-19T09:21:22;24.30;99.90
14008;DHT22;61651;45.508;12.232;2022-08-19T09:24:24;24.40;99.90
14008;DHT22;61651;45.508;12.232;2022-08-19T09:27:27;24.40;99.90
14008;DHT22;61651;45.508;12.232;2022-08-19T09:30:32;24.50;99.90
14008;DHT22;61651;45.508;12.232;2022-08-19T09:33:35;24.60;99.90
14008;DHT22;61651;45.508;12.232;2022-08-19T09:36:38;24.70;99.90
14008;DHT22;61651;45.508;12.232;2022-08-19T09:39:40;24.60;99.90
14008;DHT22;61651;45.508;12.232;2022-08-19T09:42:43;24.30;99.90
14008;DHT22;61651;45.508;12.232;2022-08-19T09:45:47;24.50;99.90
14008;DHT22;61651;45.508;12.232;2022-08-19T09:48:50;24.70;99.90
14008;DHT22;61651;45.508;12.232;2022-08-19T09:51:54;25.00;99.90
14008;DHT22;61651;45.508;12.232;2022-08-19T09:54:56;25.10;99.90
14008;DHT22;61651;45.508;12.232;2022-08-19T09:58:01;25.40;99.90
14008;DHT22;61651;45.508;12.232;2022-08-19T10:01:04;25.40;99.90
14008;DHT22;61651;45.508;12.232;2022-08-19T10:04:07;25.50;99.90
14008;DHT22;61651;45.508;12.232;2022-08-19T10:07:11;25.60;99.90
14008;DHT22;61651;45.508;12.232;2022-08-19T10:10:13;25.70;99.90
14008;DHT22;61651;45.508;12.232;2022-08-19T10:13:19;25.90;99.90
14008;DHT22;61651;45.508;12.232;2022-08-19T10:16:26;26.10;99.90
14008;DHT22;61651;45.508;12.232;2022-08-19T10:19:28;26.00;99.90
14008;DHT22;61651;45.508;12.232;2022-08-19T10:22:34;26.20;99.90
14008;DHT22;61651;45.508;12.232;2022-08-19T10:25:38;26.30;99.90
14008;DHT22;61651;45.508;12.232;2022-08-19T10:28:40;26.50;99.90
14008;DHT22;61651;45.508;12.232;2022-08-19T10:31:42;26.70;99.90
14008;DHT22;61651;45.508;12.232;2022-08-19T10:34:44;27.00;99.90
14008;DHT22;61651;45.508;12.232;2022-08-19T10:37:48;27.20;99.90
14008;DHT22;61651;45.508;12.232;2022-08-19T10:40:50;27.40;99.90
14008;DHT22;61651;45.508;12.232;2022-08-19T10:43:55;27.60;99.90
14008;DHT22;61651;45.508;12.232;2022-08-19T10:46:59;27.90;99.90
14008;DHT22;61651;45.508;12.232;2022-08-19T10:50:01;27.90;99.90
14008;DHT22;61651;45.508;12.232;2022-08-19T10:53:21;28.00;99.90
14008;DHT22;61651;45.508;12.232;2022-08-19T10:56:26;28.20;99.90
14008;DHT22;61651;45.508;12.232;2022-08-19T10:59:46;28.30;99.90
14008;DHT22;61651;45.508;12.232;2022-08-19T11:02:48;28.50;99.90
14008;DHT22;61651;45.508;12.232;2022-08-19T11:05:58;28.40;99.90
14008;DHT22;61651;45.508;12.232;2022-08-19T11:09:02;28.60;99.90
14008;DHT22;61651;45.508;12.232;2022-08-19T11:12:06;28.70;99.90
14008;DHT22;61651;45.508;12.232;2022-08-19T11:15:09;27.90;99.90
14008;DHT22;61651;45.508;12.232;2022-08-19T11:18:12;28.30;99.90
14008;DHT22;61651;45.508;12.232;2022-08-19T11:21:16;28.00;99.90
14008;DHT22;61651;45.508;12.232;2022-08-19T11:24:24;28.40;99.90
14008;DHT22;61651;45.508;12.232;2022-08-19T11:27:26;28.20;99.90
14008;DHT22;61651;45.508;12.232;2022-08-19T11:30:29;27.70;99.90
14008;DHT22;61651;45.508;12.232;2022-08-19T11:33:31;27.30;99.90
14008;DHT22;61651;45.508;12.232;2022-08-19T11:36:34;27.40;99.90
14008;DHT22;61651;45.508;12.232;2022-08-19T11:39:40;27.90;99.90
14008;DHT22;61651;45.508;12.232;2022-08-19T11:42:42;28.20;99.90
14008;DHT22;61651;45.508;12.232;2022-08-19T11:45:57;28.30;99.90
14008;DHT22;61651;45.508;12.232;2022-08-19T11:49:00;28.00;99.90
14008;DHT22;61651;45.508;12.232;2022-08-19T11:52:03;27.70;99.90
14008;DHT22;61651;45.508;12.232;2022-08-19T11:55:08;26.60;99.90
14008;DHT22;61651;45.508;12.232;2022-08-19T11:58:10;26.80;99.90
14008;DHT22;61651;45.508;12.232;2022-08-19T12:01:14;26.50;99.90
14008;DHT22;61651;45.508;12.232;2022-08-19T12:04:16;26.60;99.90
14008;DHT22;61651;45.508;12.232;2022-08-19T12:07:18;26.30;99.90
14008;DHT22;61651;45.508;12.232;2022-08-19T12:10:22;26.50;99.90
14008;DHT22;61651;45.508;12.232;2022-08-19T12:13:24;26.50;99.90
14008;DHT22;61651;45.508;12.232;2022-08-19T12:16:28;26.30;99.90
14008;DHT22;61651;45.508;12.232;2022-08-19T12:19:31;26.10;99.90
14008;DHT22;61651;45.508;12.232;2022-08-19T12:22:33;26.00;99.90
14008;DHT22;61651;45.508;12.232;2022-08-19T12:25:37;26.10;99.90
14008;DHT22;61651;45.508;12.232;2022-08-19T12:28:39;26.20;99.90
14008;DHT22;61651;45.508;12.232;2022-08-19T12:31:41;26.00;99.90
14008;DHT22;61651;45.508;12.232;2022-08-19T12:34:43;26.30;99.90
14008;DHT22;61651;45.508;12.232;2022-08-19T12:37:48;26.20;99.90
14008;DHT22;61651;45.508;12.232;2022-08-19T12:40:52;26.20;99.90
14008;DHT22;61651;45.508;12.232;2022-08-19T12:43:54;26.30;99.90
14008;DHT22;61651;45.508;12.232;2022-08-19T12:46:56;26.60;99.90
14008;DHT22;61651;45.508;12.232;2022-08-19T12:49:58;26.80;99.90
14008;DHT22;61651;45.508;12.232;2022-08-19T12:53:00;26.70;99.90
14008;DHT22;61651;45.508;12.232;2022-08-19T12:56:04;27.00;99.90
14008;DHT22;61651;45.508;12.232;2022-08-19T12:59:06;27.30;99.90
14008;DHT22;61651;45.508;12.232;2022-08-19T13:02:09;27.80;99.90
14008;DHT22;61651;45.508;12.232;2022-08-19T13:05:14;27.70;99.90
14008;DHT22;61651;45.508;12.232;2022-08-19T13:08:16;27.50;99.90
14008;DHT22;61651;45.508;12.232;2022-08-19T13:11:21;27.50;99.90
14008;DHT22;61651;45.508;12.232;2022-08-19T13:14:24;27.80;99.90
14008;DHT22;61651;45.508;12.232;2022-08-19T13:17:26;27.90;99.90
14008;DHT22;61651;45.508;12.232;2022-08-19T13:20:29;27.90;99.90
14008;DHT22;61651;45.508;12.232;2022-08-19T13:23:31;27.90;99.90
14008;DHT22;61651;45.508;12.232;2022-08-19T13:26:34;28.30;99.90
14008;DHT22;61651;45.508;12.232;2022-08-19T13:29:36;28.40;99.90
14008;DHT22;61651;45.508;12.232;2022-08-19T13:32:56;28.70;99.90
14008;DHT22;61651;45.508;12.232;2022-08-19T13:36:14;29.10;99.90
14008;DHT22;61651;45.508;12.232;2022-08-19T13:39:16;29.30;99.90
14008;DHT22;61651;45.508;12.232;2022-08-19T13:42:19;29.60;99.90
14008;DHT22;61651;45.508;12.232;2022-08-19T13:45:23;30.20;99.90
14008;DHT22;61651;45.508;12.232;2022-08-19T13:48:26;30.50;99.90
14008;DHT22;61651;45.508;12.232;2022-08-19T13:51:28;30.80;99.90
14008;DHT22;61651;45.508;12.232;2022-08-19T13:54:30;30.80;99.90
14008;DHT22;61651;45.508;12.232;2022-08-19T13:57:34;30.20;99.90
14008;DHT22;61651;45.508;12.232;2022-08-19T14:00:40;30.40;99.90
14008;DHT22;61651;45.508;12.232;2022-08-19T14:03:42;30.40;99.90
14008;DHT22;61651;45.508;12.232;2022-08-19T14:06:45;30.90;99.90
14008;DHT22;61651;45.508;12.232;2022-08-19T14:09:47;31.50;99.90
14008;DHT22;61651;45.508;12.232;2022-08-19T14:12:52;31.70;99.90
14008;DHT22;61651;45.508;12.232;2022-08-19T14:15:55;32.30;99.90
14008;DHT22;61651;45.508;12.232;2022-08-19T14:18:58;32.60;99.90
14008;DHT22;61651;45.508;12.232;2022-08-19T14:22:00;32.10;99.90
14008;DHT22;61651;45.508;12.232;2022-08-19T14:25:03;31.50;99.90
14008;DHT22;61651;45.508;12.232;2022-08-19T14:28:07;32.30;99.90
14008;DHT22;61651;45.508;12.232;2022-08-19T14:31:09;32.40;99.90
14008;DHT22;61651;45.508;12.232;2022-08-19T14:34:11;32.40;99.90
14008;DHT22;61651;45.508;12.232;2022-08-19T14:37:14;32.30;99.90
14008;DHT22;61651;45.508;12.232;2022-08-19T14:40:17;31.20;99.90
14008;DHT22;61651;45.508;12.232;2022-08-19T14:43:22;32.20;99.90
14008;DHT22;61651;45.508;12.232;2022-08-19T14:46:26;31.60;99.90
14008;DHT22;61651;45.508;12.232;2022-08-19T14:49:28;31.70;99.90
14008;DHT22;61651;45.508;12.232;2022-08-19T14:52:30;32.20;99.90
14008;DHT22;61651;45.508;12.232;2022-08-19T14:55:33;33.10;99.90
14008;DHT22;61651;45.508;12.232;2022-08-19T14:58:36;34.00;99.90
14008;DHT22;61651;45.508;12.232;2022-08-19T15:01:38;33.00;99.90
14008;DHT22;61651;45.508;12.232;2022-08-19T15:04:40;32.30;99.90
14008;DHT22;61651;45.508;12.232;2022-08-19T15:07:43;32.60;99.90
14008;DHT22;61651;45.508;12.232;2022-08-19T15:10:45;32.90;99.90
14008;DHT22;61651;45.508;12.232;2022-08-19T15:13:50;33.50;99.90
14008;DHT22;61651;45.508;12.232;2022-08-19T15:16:53;33.80;99.90
14008;DHT22;61651;45.508;12.232;2022-08-19T15:19:55;34.30;99.90
14008;DHT22;61651;45.508;12.232;2022-08-19T15:22:58;34.80;99.90
14008;DHT22;61651;45.508;12.232;2022-08-19T15:26:00;35.30;99.90
14008;DHT22;61651;45.508;12.232;2022-08-19T15:29:04;35.50;99.90
14008;DHT22;61651;45.508;12.232;2022-08-19T15:32:06;35.70;99.90
14008;DHT22;61651;45.508;12.232;2022-08-19T15:35:09;35.90;99.90
14008;DHT22;61651;45.508;12.232;2022-08-19T15:38:11;35.60;99.90
14008;DHT22;61651;45.508;12.232;2022-08-19T15:41:17;34.90;99.90
14008;DHT22;61651;45.508;12.232;2022-08-19T15:44:26;34.20;99.90
14008;DHT22;61651;45.508;12.232;2022-08-19T15:47:29;33.30;99.90
14008;DHT22;61651;45.508;12.232;2022-08-19T15:50:31;32.80;99.90
14008;DHT22;61651;45.508;12.232;2022-08-19T15:53:33;32.50;99.90
14008;DHT22;61651;45.508;12.232;2022-08-19T15:56:35;32.30;99.90
14008;DHT22;61651;45.508;12.232;2022-08-19T16:00:09;32.20;99.90
14008;DHT22;61651;45.508;12.232;2022-08-19T16:03:28;32.00;99.90
14008;DHT22;61651;45.508;12.232;2022-08-19T16:06:52;31.70;99.90
14008;DHT22;61651;45.508;12.232;2022-08-19T16:09:54;31.40;99.90
14008;DHT22;61651;45.508;12.232;2022-08-19T16:12:57;30.90;99.90
14008;DHT22;61651;45.508;12.232;2022-08-19T16:16:01;30.60;99.90
14008;DHT22;61651;45.508;12.232;2022-08-19T16:19:05;30.50;99.90
14008;DHT22;61651;45.508;12.232;2022-08-19T16:22:07;30.50;99.90
14008;DHT22;61651;45.508;12.232;2022-08-19T16:25:09;30.40;99.90
14008;DHT22;61651;45.508;12.232;2022-08-19T16:28:13;30.40;99.90
14008;DHT22;61651;45.508;12.232;2022-08-19T16:31:17;30.10;99.90
14008;DHT22;61651;45.508;12.232;2022-08-19T16:34:19;30.10;99.90
14008;DHT22;61651;45.508;12.232;2022-08-19T16:37:21;29.80;99.90
14008;DHT22;61651;45.508;12.232;2022-08-19T16:40:23;29.60;99.90
14008;DHT22;61651;45.508;12.232;2022-08-19T16:43:26;29.60;99.90
14008;DHT22;61651;45.508;12.232;2022-08-19T16:46:31;29.50;99.90
14008;DHT22;61651;45.508;12.232;2022-08-19T16:49:33;29.20;99.90
14008;DHT22;61651;45.508;12.232;2022-08-19T16:52:35;29.00;99.90
14008;DHT22;61651;45.508;12.232;2022-08-19T16:55:37;28.60;99.90
14008;DHT22;61651;45.508;12.232;2022-08-19T16:58:39;28.60;99.90
14008;DHT22;61651;45.508;12.232;2022-08-19T17:01:43;28.60;99.90
14008;DHT22;61651;45.508;12.232;2022-08-19T17:04:45;28.60;99.90
14008;DHT22;61651;45.508;12.232;2022-08-19T17:07:49;28.60;99.90
14008;DHT22;61651;45.508;12.232;2022-08-19T17:10:53;28.70;99.90
14008;DHT22;61651;45.508;12.232;2022-08-19T17:13:55;28.70;99.90
14008;DHT22;61651;45.508;12.232;2022-08-19T17:17:00;28.60;99.90
14008;DHT22;61651;45.508;12.232;2022-08-19T17:20:02;28.50;99.90
14008;DHT22;61651;45.508;12.232;2022-08-19T17:23:06;28.60;99.90
14008;DHT22;61651;45.508;12.232;2022-08-19T17:26:08;28.60;99.90
14008;DHT22;61651;45.508;12.232;2022-08-19T17:29:10;28.40;99.90
14008;DHT22;61651;45.508;12.232;2022-08-19T17:32:13;28.40;99.90
14008;DHT22;61651;45.508;12.232;2022-08-19T17:35:15;28.40;99.90
14008;DHT22;61651;45.508;12.232;2022-08-19T17:38:21;28.40;99.90
14008;DHT22;61651;45.508;12.232;2022-08-19T17:41:26;28.40;99.90
14008;DHT22;61651;45.508;12.232;2022-08-19T17:44:29;28.40;99.90
14008;DHT22;61651;45.508;12.232;2022-08-19T17:47:34;28.40;99.90
14008;DHT22;61651;45.508;12.232;2022-08-19T17:50:36;28.20;99.90
14008;DHT22;61651;45.508;12.232;2022-08-19T17:53:38;28.20;99.90
14008;DHT22;61651;45.508;12.232;2022-08-19T17:56:41;28.10;99.90
14008;DHT22;61651;45.508;12.232;2022-08-19T17:59:44;28.00;99.90
14008;DHT22;61651;45.508;12.232;2022-08-19T18:02:52;28.00;99.90
14008;DHT22;61651;45.508;12.232;2022-08-19T18:05:55;28.00;99.90
14008;DHT22;61651;45.508;12.232;2022-08-19T18:08:58;27.90;99.90
14008;DHT22;61651;45.508;12.232;2022-08-19T18:12:00;27.80;99.90
14008;DHT22;61651;45.508;12.232;2022-08-19T18:15:04;27.80;99.90
14008;DHT22;61651;45.508;12.232;2022-08-19T18:18:07;27.80;99.90
14008;DHT22;61651;45.508;12.232;2022-08-19T18:21:10;27.80;99.90
14008;DHT22;61651;45.508;12.232;2022-08-19T18:24:12;27.70;99.90
14008;DHT22;61651;45.508;12.232;2022-08-19T18:27:15;27.70;99.90
14008;DHT22;61651;45.508;12.232;2022-08-19T18:30:18;27.60;99.90
14008;DHT22;61651;45.508;12.232;2022-08-19T18:33:21;27.60;99.90
14008;DHT22;61651;45.508;12.232;2022-08-19T18:36:24;27.50;99.90
14008;DHT22;61651;45.508;12.232;2022-08-19T18:39:28;27.40;99.90
14008;DHT22;61651;45.508;12.232;2022-08-19T18:42:47;27.30;99.90
14008;DHT22;61651;45.508;12.232;2022-08-19T18:46:06;27.30;99.90
14008;DHT22;61651;45.508;12.232;2022-08-19T18:49:32;27.20;99.90
14008;DHT22;61651;45.508;12.232;2022-08-19T18:52:34;27.20;99.90
14008;DHT22;61651;45.508;12.232;2022-08-19T18:55:36;27.20;99.90
14008;DHT22;61651;45.508;12.232;2022-08-19T18:58:39;27.20;99.90
14008;DHT22;61651;45.508;12.232;2022-08-19T19:01:43;27.10;99.90
14008;DHT22;61651;45.508;12.232;2022-08-19T19:04:51;27.00;99.90